createdAt,value
2022-12-31T00:01:15.781Z,5.78
2022-12-31T00:03:44.987Z,5.80
2022-12-31T00:06:20.354Z,5.50
2022-12-31T00:08:49.585Z,5.60
2022-12-31T00:11:18.794Z,5.43
2022-12-31T00:13:47.997Z,6.20
2022-12-31T00:16:21.451Z,5.18
2022-12-31T00:18:52.177Z,5.93
2022-12-31T00:23:50.764Z,5.60
2022-12-31T00:26:22.620Z,5.13
2022-12-31T00:28:50.999Z,5.65
2022-12-31T00:31:23.241Z,5.82
2022-12-31T00:33:52.074Z,5.28
2022-12-31T00:36:22.970Z,5.18
2022-12-31T00:38:53.569Z,5.60
2022-12-31T00:41:23.419Z,5.40
2022-12-31T00:43:52.172Z,5.43
2022-12-31T00:46:22.563Z,5.45
2022-12-31T00:48:51.665Z,5.63
2022-12-31T00:51:24.462Z,5.20
2022-12-31T00:53:52.906Z,4.97
2022-12-31T00:56:24.501Z,5.40
2022-12-31T00:58:53.705Z,4.60
2022-12-31T01:01:26.499Z,4.47
2022-12-31T01:03:59.031Z,4.88
2022-12-31T01:06:27.593Z,5.00
2022-12-31T01:08:56.203Z,5.32
2022-12-31T01:11:29.374Z,4.60
2022-12-31T01:14:00.707Z,4.82
2022-12-31T01:16:33.916Z,5.05
2022-12-31T01:19:06.078Z,4.43
2022-12-31T01:21:35.602Z,4.95
2022-12-31T01:24:04.164Z,4.07
2022-12-31T01:26:33.019Z,4.55
2022-12-31T01:29:01.531Z,5.55
2022-12-31T01:31:31.473Z,4.90
2022-12-31T01:34:00.164Z,5.15
2022-12-31T01:36:31.331Z,4.35
2022-12-31T01:39:02.478Z,4.43
2022-12-31T01:41:33.902Z,5.03
2022-12-31T01:44:24.648Z,4.40
2022-12-31T01:52:01.567Z,4.43
2022-12-31T01:54:34.212Z,4.80
2022-12-31T01:57:03.795Z,4.93
2022-12-31T01:59:34.147Z,4.80
2022-12-31T02:02:05.012Z,5.07
2022-12-31T02:04:33.867Z,4.85
2022-12-31T02:07:05.634Z,4.95
2022-12-31T02:09:38.205Z,5.10
2022-12-31T02:12:07.931Z,4.75
2022-12-31T02:14:40.161Z,4.60
2022-12-31T02:17:20.683Z,4.90
2022-12-31T02:20:25.269Z,4.07
2022-12-31T02:23:18.068Z,4.88
2022-12-31T02:26:37.277Z,4.68
2022-12-31T02:30:05.915Z,4.60
2022-12-31T02:32:53.191Z,4.68
2022-12-31T02:35:27.031Z,4.78
2022-12-31T02:38:04.236Z,4.70
2022-12-31T02:40:36.964Z,4.43
2022-12-31T02:43:05.780Z,4.88
2022-12-31T02:45:39.876Z,4.50
2022-12-31T02:48:34.380Z,4.47
2022-12-31T02:51:23.017Z,4.60
2022-12-31T02:54:16.619Z,4.32
2022-12-31T02:56:57.385Z,4.90
2022-12-31T02:59:50.714Z,4.72
2022-12-31T03:02:22.900Z,4.68
2022-12-31T03:04:55.283Z,3.90
2022-12-31T03:07:26.524Z,4.20
2022-12-31T03:09:55.992Z,4.32
2022-12-31T03:12:46.054Z,4.35
2022-12-31T03:15:23.717Z,4.10
2022-12-31T03:17:58.167Z,4.32
2022-12-31T03:20:50.078Z,4.45
2022-12-31T03:23:24.456Z,4.13
2022-12-31T03:25:53.346Z,4.40
2022-12-31T03:28:26.067Z,4.53
2022-12-31T03:30:57.220Z,4.55
2022-12-31T03:33:27.893Z,3.92
2022-12-31T03:35:56.187Z,4.05
2022-12-31T03:38:24.667Z,3.92
2022-12-31T03:40:55.309Z,4.15
2022-12-31T03:43:23.886Z,4.95
2022-12-31T03:45:53.984Z,4.63
2022-12-31T03:48:24.121Z,5.03
2022-12-31T03:50:53.867Z,5.10
2022-12-31T03:53:22.427Z,4.45
2022-12-31T03:55:52.960Z,5.18
2022-12-31T03:58:22.269Z,5.60
2022-12-31T04:00:50.944Z,5.85
2022-12-31T04:03:19.486Z,5.80
2022-12-31T04:05:55.460Z,6.38
2022-12-31T04:08:23.926Z,6.60
2022-12-31T04:10:52.221Z,6.28
2022-12-31T04:13:20.515Z,6.25
2022-12-31T04:15:51.903Z,6.40
2022-12-31T04:18:20.282Z,6.30
2022-12-31T04:20:48.547Z,6.07
2022-12-31T04:23:18.315Z,6.63
2022-12-31T04:25:46.691Z,6.83
2022-12-31T04:28:14.977Z,6.68
2022-12-31T04:30:44.928Z,6.82
2022-12-31T04:33:13.270Z,6.80
2022-12-31T04:35:41.593Z,7.22
2022-12-31T04:38:09.975Z,7.00
2022-12-31T04:40:59.930Z,7.68
2022-12-31T04:43:28.325Z,8.88
2022-12-31T04:45:56.701Z,9.27
2022-12-31T04:48:25.368Z,10.43
2022-12-31T04:50:53.671Z,11.70
2022-12-31T04:53:22.140Z,11.68
2022-12-31T04:55:51.912Z,11.40
2022-12-31T04:58:20.511Z,10.57
2022-12-31T05:00:51.969Z,9.25
2022-12-31T05:03:20.508Z,7.82
2022-12-31T05:05:50.071Z,7.28
2022-12-31T05:08:19.598Z,6.47
2022-12-31T05:10:51.441Z,6.00
2022-12-31T05:13:19.798Z,6.18
2022-12-31T05:15:48.343Z,5.50
2022-12-31T05:18:18.139Z,5.75
2022-12-31T05:20:46.795Z,5.50
2022-12-31T05:23:15.848Z,5.55
2022-12-31T05:25:46.223Z,5.60
2022-12-31T05:28:17.277Z,5.43
2022-12-31T05:30:48.621Z,4.95
2022-12-31T05:33:17.263Z,4.22
2022-12-31T05:35:46.421Z,5.40
2022-12-31T05:38:14.836Z,4.88
2022-12-31T05:40:43.109Z,5.07
2022-12-31T05:43:11.536Z,4.82
2022-12-31T05:45:41.308Z,4.63
2022-12-31T05:48:09.619Z,4.60
2022-12-31T05:50:37.928Z,5.03
2022-12-31T05:53:06.231Z,4.50
2022-12-31T05:55:34.538Z,4.35
2022-12-31T05:58:02.855Z,4.60
2022-12-31T06:00:31.216Z,4.28
2022-12-31T06:03:00.999Z,3.88
2022-12-31T06:05:29.393Z,4.17
2022-12-31T06:07:57.773Z,4.68
2022-12-31T06:10:26.140Z,4.70
2022-12-31T06:12:54.457Z,4.55
2022-12-31T06:15:22.824Z,4.53
2022-12-31T06:17:51.091Z,4.22
2022-12-31T06:20:20.901Z,4.45
2022-12-31T06:22:49.193Z,4.63
2022-12-31T06:25:17.752Z,4.90
2022-12-31T06:27:46.037Z,4.97
2022-12-31T06:30:15.377Z,5.05
2022-12-31T06:32:43.674Z,4.40
2022-12-31T06:35:12.045Z,4.70
2022-12-31T06:37:41.915Z,5.05
2022-12-31T06:40:12.243Z,4.78
2022-12-31T06:42:42.228Z,4.25
2022-12-31T06:45:11.817Z,4.65
2022-12-31T06:47:40.106Z,4.10
2022-12-31T06:50:09.972Z,3.97
2022-12-31T06:52:38.444Z,4.50
2022-12-31T06:55:10.919Z,3.70
2022-12-31T06:57:40.095Z,3.80
2022-12-31T07:00:11.219Z,3.53
2022-12-31T07:03:11.615Z,3.72
2022-12-31T07:05:47.113Z,3.20
2022-12-31T07:08:35.065Z,3.45
2022-12-31T07:11:13.996Z,3.22
2022-12-31T07:14:00.926Z,3.22
2022-12-31T07:16:50.523Z,3.33
2022-12-31T07:19:32.594Z,3.25
2022-12-31T07:22:01.865Z,3.38
2022-12-31T07:24:31.060Z,3.45
2022-12-31T07:27:20.066Z,3.60
2022-12-31T07:30:03.453Z,4.38
2022-12-31T07:33:05.783Z,3.55
2022-12-31T07:35:47.238Z,3.97
2022-12-31T07:38:25.730Z,3.72
2022-12-31T07:41:09.839Z,4.15
2022-12-31T07:43:54.376Z,3.40
2022-12-31T07:46:35.161Z,3.42
2022-12-31T07:49:06.112Z,3.78
2022-12-31T07:51:35.801Z,3.60
2022-12-31T07:54:08.741Z,3.60
2022-12-31T07:56:40.314Z,3.97
2022-12-31T07:59:26.714Z,4.18
2022-12-31T08:02:04.379Z,4.25
2022-12-31T08:04:46.995Z,4.15
2022-12-31T08:07:24.040Z,4.18
2022-12-31T08:10:04.502Z,4.32
2022-12-31T08:12:37.453Z,4.22
2022-12-31T08:15:15.161Z,4.40
2022-12-31T08:17:44.223Z,4.63
2022-12-31T08:20:15.722Z,4.43
2022-12-31T08:23:11.210Z,4.53
2022-12-31T08:25:54.318Z,3.90
2022-12-31T08:28:35.924Z,4.40
2022-12-31T08:31:10.433Z,3.90
2022-12-31T08:33:49.709Z,4.25
2022-12-31T08:36:26.476Z,5.18
2022-12-31T08:39:03.636Z,4.93
2022-12-31T08:41:43.364Z,4.57
2022-12-31T08:44:21.202Z,5.63
2022-12-31T08:47:01.291Z,4.78
2022-12-31T08:49:33.778Z,5.50
2022-12-31T08:52:04.131Z,4.75
2022-12-31T08:54:33.240Z,5.18
2022-12-31T08:57:12.168Z,5.95
2022-12-31T08:59:51.074Z,5.57
2022-12-31T09:02:58.242Z,5.43
2022-12-31T09:05:31.819Z,5.88
2022-12-31T09:08:12.733Z,4.70
2022-12-31T09:10:48.685Z,5.28
2022-12-31T09:13:26.579Z,5.10
2022-12-31T09:16:02.528Z,5.32
2022-12-31T09:18:36.228Z,4.93
2022-12-31T09:21:05.032Z,5.18
2022-12-31T09:23:34.059Z,5.40
2022-12-31T09:26:14.438Z,5.95
2022-12-31T09:28:53.024Z,5.53
2022-12-31T09:31:32.731Z,4.93
2022-12-31T09:34:09.367Z,4.82
2022-12-31T09:36:43.718Z,4.50
2022-12-31T09:39:23.366Z,3.35
2022-12-31T09:42:42.364Z,4.55
2022-12-31T09:45:56.702Z,4.50
2022-12-31T09:49:18.396Z,3.80
2022-12-31T09:51:57.849Z,3.95
2022-12-31T09:54:50.767Z,4.60
2022-12-31T09:57:40.359Z,4.68
2022-12-31T10:00:16.767Z,4.35
2022-12-31T10:03:13.622Z,4.75
2022-12-31T10:06:07.971Z,4.97
2022-12-31T10:09:10.795Z,4.88
2022-12-31T10:12:01.821Z,4.45
2022-12-31T10:14:47.760Z,4.85
2022-12-31T10:17:32.059Z,4.90
2022-12-31T10:20:31.952Z,5.13
2022-12-31T10:23:36.262Z,4.70
2022-12-31T10:26:24.787Z,5.50
2022-12-31T10:28:59.846Z,5.63
2022-12-31T10:31:41.667Z,5.50
2022-12-31T10:34:17.331Z,5.32
2022-12-31T10:36:56.743Z,5.43
2022-12-31T10:39:42.731Z,5.22
2022-12-31T10:43:09.551Z,4.70
2022-12-31T10:46:57.766Z,4.75
2022-12-31T10:50:27.029Z,5.25
2022-12-31T10:53:51.627Z,5.60
2022-12-31T10:57:08.996Z,5.10
2022-12-31T11:00:10.597Z,4.93
2022-12-31T11:03:57.698Z,4.85
2022-12-31T11:07:26.183Z,4.90
2022-12-31T11:10:38.451Z,4.57
2022-12-31T11:13:48.371Z,4.47
2022-12-31T11:16:37.192Z,4.50
2022-12-31T11:19:18.502Z,4.60
2022-12-31T11:22:05.052Z,4.18
2022-12-31T11:24:55.703Z,5.13
2022-12-31T11:27:47.705Z,4.57
2022-12-31T11:30:26.552Z,5.03
2022-12-31T11:33:15.366Z,4.72
2022-12-31T11:36:01.553Z,4.70
2022-12-31T11:38:32.956Z,5.05
2022-12-31T11:41:07.783Z,5.25
2022-12-31T11:43:42.145Z,4.82
2022-12-31T11:46:48.953Z,5.30
2022-12-31T11:49:43.365Z,5.60
2022-12-31T11:52:44.595Z,5.47
2022-12-31T11:55:44.062Z,5.72
2022-12-31T11:58:16.312Z,5.75
2022-12-31T12:00:53.411Z,5.47
2022-12-31T12:03:24.605Z,5.75
2022-12-31T12:05:53.132Z,5.38
2022-12-31T12:08:21.565Z,5.68
2022-12-31T12:10:54.895Z,5.85
2022-12-31T12:13:27.050Z,5.32
2022-12-31T12:16:01.321Z,5.65
2022-12-31T12:18:38.084Z,6.65
2022-12-31T12:21:12.398Z,6.97
2022-12-31T12:23:42.562Z,6.45
2022-12-31T12:26:33.931Z,9.05
2022-12-31T12:29:11.093Z,7.25
2022-12-31T12:31:40.087Z,8.68
2022-12-31T12:34:25.468Z,7.97
2022-12-31T12:36:54.169Z,7.93
2022-12-31T12:39:25.389Z,8.90
2022-12-31T12:42:05.969Z,9.45
2022-12-31T12:44:35.804Z,7.25
2022-12-31T12:47:06.616Z,13.43
2022-12-31T12:49:42.002Z,13.10
2022-12-31T12:52:38.988Z,11.93
2022-12-31T12:55:20.138Z,8.52
2022-12-31T12:57:57.088Z,8.13
2022-12-31T13:00:30.858Z,9.85
2022-12-31T13:03:41.722Z,8.82
2022-12-31T13:06:33.973Z,8.93
2022-12-31T13:09:19.326Z,6.22
2022-12-31T13:12:03.896Z,7.13
2022-12-31T13:14:43.077Z,6.82
2022-12-31T13:17:34.696Z,6.40
2022-12-31T13:20:10.210Z,6.38
2022-12-31T13:22:45.904Z,5.15
2022-12-31T13:25:27.737Z,4.60
2022-12-31T13:28:05.818Z,5.20
2022-12-31T13:30:38.274Z,4.68
2022-12-31T13:33:16.863Z,4.97
2022-12-31T13:35:50.095Z,5.13
2022-12-31T13:38:25.701Z,4.75
2022-12-31T13:41:02.198Z,6.38
2022-12-31T13:43:44.575Z,4.72
2022-12-31T13:46:27.564Z,4.80
2022-12-31T13:49:02.376Z,5.53
2022-12-31T13:51:43.020Z,5.68
2022-12-31T13:54:35.989Z,5.13
2022-12-31T13:57:19.712Z,5.60
2022-12-31T13:59:55.335Z,5.45
2022-12-31T14:02:40.719Z,5.13
2022-12-31T14:05:20.043Z,4.40
2022-12-31T14:07:53.866Z,5.15
2022-12-31T14:10:33.734Z,5.38
2022-12-31T14:13:18.148Z,5.40
2022-12-31T14:15:52.944Z,5.32
2022-12-31T14:18:28.478Z,5.43
2022-12-31T14:21:06.453Z,5.13
2022-12-31T14:23:44.287Z,5.65
2022-12-31T14:26:22.685Z,5.28
2022-12-31T14:29:03.867Z,4.97
2022-12-31T14:32:02.624Z,5.13
2022-12-31T14:34:43.065Z,5.50
2022-12-31T14:37:19.880Z,5.40
2022-12-31T14:39:56.283Z,5.28
2022-12-31T14:42:34.070Z,5.15
2022-12-31T14:45:22.154Z,5.88
2022-12-31T14:47:55.604Z,5.50
2022-12-31T14:50:27.115Z,4.70
2022-12-31T14:53:07.263Z,5.07
2022-12-31T14:55:37.729Z,6.13
2022-12-31T14:58:28.855Z,7.35
2022-12-31T15:00:59.700Z,7.00
2022-12-31T15:03:41.380Z,7.15
2022-12-31T15:06:56.038Z,6.63
2022-12-31T15:10:02.581Z,6.82
2022-12-31T15:13:03.323Z,7.07
2022-12-31T15:16:35.840Z,7.10
2022-12-31T15:19:42.994Z,7.95
2022-12-31T15:22:29.817Z,8.02
2022-12-31T15:25:00.142Z,7.70
2022-12-31T15:27:36.726Z,8.15
2022-12-31T15:30:07.700Z,8.07
2022-12-31T15:32:42.460Z,7.57
2022-12-31T15:35:30.396Z,7.15
2022-12-31T15:38:18.219Z,7.60
2022-12-31T15:40:49.432Z,7.18
2022-12-31T15:43:30.784Z,7.75
2022-12-31T15:45:59.885Z,7.55
2022-12-31T15:48:49.024Z,11.13
2022-12-31T15:51:26.626Z,9.07
2022-12-31T15:53:56.134Z,7.32
2022-12-31T15:56:34.759Z,7.50
2022-12-31T15:59:07.619Z,7.63
2022-12-31T16:01:37.943Z,7.32
2022-12-31T16:04:16.328Z,6.93
2022-12-31T16:06:50.726Z,6.93
2022-12-31T16:09:26.900Z,7.30
2022-12-31T16:11:57.952Z,6.68
2022-12-31T16:14:31.912Z,7.28
2022-12-31T16:17:02.257Z,6.57
2022-12-31T16:19:35.862Z,7.20
2022-12-31T16:22:12.988Z,7.18
2022-12-31T16:25:19.314Z,6.55
2022-12-31T16:27:31.770Z,6.68
2022-12-31T16:30:04.777Z,7.03
2022-12-31T16:32:37.228Z,6.50
2022-12-31T16:35:27.242Z,5.88
2022-12-31T16:38:13.796Z,6.80
2022-12-31T16:40:44.286Z,7.05
2022-12-31T16:43:28.636Z,6.10
2022-12-31T16:45:59.303Z,6.70
2022-12-31T16:50:58.100Z,6.80
2022-12-31T16:53:30.526Z,7.00
2022-12-31T16:56:03.706Z,7.15
2022-12-31T16:58:34.620Z,7.07
2022-12-31T17:01:13.762Z,6.38
2022-12-31T17:03:47.109Z,6.32
2022-12-31T17:06:19.001Z,6.13
2022-12-31T17:08:51.837Z,6.25
2022-12-31T17:11:24.950Z,6.57
2022-12-31T17:13:59.145Z,5.85
2022-12-31T17:16:28.271Z,6.32
2022-12-31T17:18:56.766Z,6.50
2022-12-31T17:21:29.847Z,6.13
2022-12-31T17:24:03.056Z,6.47
2022-12-31T17:26:34.130Z,6.38
2022-12-31T17:29:05.976Z,6.00
2022-12-31T17:31:37.743Z,6.22
2022-12-31T17:34:24.998Z,6.15
2022-12-31T17:37:18.309Z,6.10
2022-12-31T17:39:50.492Z,6.40
2022-12-31T17:42:28.329Z,5.68
2022-12-31T17:45:00.644Z,6.97
2022-12-31T17:47:36.982Z,6.35
2022-12-31T17:50:22.407Z,6.25
2022-12-31T17:52:57.338Z,7.20
2022-12-31T17:55:25.849Z,6.53
2022-12-31T17:57:56.842Z,5.78
2022-12-31T18:00:27.730Z,6.25
2022-12-31T18:02:56.283Z,6.72
2022-12-31T18:05:25.842Z,6.60
2022-12-31T18:07:56.141Z,6.05
2022-12-31T18:10:26.340Z,6.57
2022-12-31T18:12:54.967Z,7.20
2022-12-31T18:15:25.596Z,7.13
2022-12-31T18:17:54.056Z,7.20
2022-12-31T18:20:22.528Z,7.80
2022-12-31T18:22:51.347Z,7.15
2022-12-31T18:25:23.854Z,6.45
2022-12-31T18:27:53.537Z,6.53
2022-12-31T18:30:23.321Z,6.53
2022-12-31T18:32:51.916Z,5.97
2022-12-31T18:38:15.254Z,7.50
2022-12-31T18:40:52.183Z,6.45
2022-12-31T18:43:21.476Z,6.50
2022-12-31T18:45:51.341Z,6.03
2022-12-31T18:48:20.275Z,5.97
2022-12-31T18:50:48.945Z,6.15
2022-12-31T18:53:20.227Z,6.88
2022-12-31T18:55:52.636Z,6.47
2022-12-31T18:58:21.324Z,6.18
2022-12-31T19:00:50.718Z,6.00
2022-12-31T19:03:22.483Z,6.88
2022-12-31T19:05:52.755Z,6.70
2022-12-31T19:08:23.023Z,6.70
2022-12-31T19:10:53.728Z,7.43
2022-12-31T19:15:53.555Z,6.82
2022-12-31T19:18:22.073Z,6.57
2022-12-31T19:20:50.441Z,7.35
2022-12-31T19:23:22.464Z,7.40
2022-12-31T19:25:52.732Z,7.60
2022-12-31T19:28:24.534Z,7.88
2022-12-31T19:30:53.528Z,7.38
2022-12-31T19:33:22.343Z,7.30
2022-12-31T19:35:50.937Z,7.20
2022-12-31T19:38:22.154Z,7.35
2022-12-31T19:40:53.109Z,8.32
2022-12-31T19:43:24.334Z,8.52
2022-12-31T19:45:53.222Z,8.20
2022-12-31T19:48:32.049Z,7.28
2022-12-31T19:51:01.155Z,7.15
2022-12-31T19:53:29.722Z,7.70
2022-12-31T19:55:59.394Z,7.50
2022-12-31T19:58:28.636Z,7.83
2022-12-31T20:01:02.820Z,8.40
2022-12-31T20:03:33.367Z,7.88
2022-12-31T20:06:05.435Z,8.18
2022-12-31T20:08:34.528Z,8.68
2022-12-31T20:11:11.760Z,8.27
2022-12-31T20:13:41.332Z,8.38
2022-12-31T20:16:11.037Z,7.97
2022-12-31T20:18:40.280Z,7.53
2022-12-31T20:21:12.129Z,7.63
2022-12-31T20:23:40.930Z,7.43
2022-12-31T20:26:11.490Z,7.43
2022-12-31T20:28:40.471Z,7.63
2022-12-31T20:31:10.303Z,7.53
2022-12-31T20:33:38.691Z,7.97
2022-12-31T20:36:09.788Z,7.30
2022-12-31T20:38:38.296Z,7.53
2022-12-31T20:41:10.971Z,7.55
2022-12-31T20:43:40.251Z,8.05
2022-12-31T20:46:14.877Z,7.75
2022-12-31T20:48:45.200Z,7.30
2022-12-31T20:51:14.399Z,7.55
2022-12-31T20:53:48.310Z,8.18
2022-12-31T20:56:18.942Z,7.50
2022-12-31T21:01:17.315Z,8.25
2022-12-31T21:04:05.597Z,7.55
2022-12-31T21:06:36.581Z,8.15
2022-12-31T21:09:08.032Z,7.82
2022-12-31T21:11:55.590Z,7.45
2022-12-31T21:14:23.913Z,6.93
2022-12-31T21:16:52.364Z,8.35
2022-12-31T21:19:20.638Z,8.20
2022-12-31T21:21:49.843Z,7.57
2022-12-31T21:24:23.600Z,7.57
2022-12-31T21:26:56.596Z,7.82
2022-12-31T21:29:26.241Z,7.70
2022-12-31T21:31:57.302Z,7.88
2022-12-31T21:34:25.625Z,7.88
2022-12-31T21:36:53.967Z,7.93
2022-12-31T21:39:22.323Z,8.65
2022-12-31T21:41:53.669Z,7.72
2022-12-31T21:44:25.934Z,8.20
2022-12-31T21:47:35.394Z,8.27
2022-12-31T21:50:06.717Z,8.00
2022-12-31T21:52:35.162Z,7.85
2022-12-31T21:55:23.781Z,8.07
2022-12-31T21:58:28.062Z,7.43
2022-12-31T22:01:00.899Z,7.60
2022-12-31T22:03:31.719Z,7.38
2022-12-31T22:06:03.084Z,7.68
2022-12-31T22:08:32.454Z,7.10
2022-12-31T22:11:00.735Z,7.22
2022-12-31T22:13:29.217Z,7.55
2022-12-31T22:16:05.161Z,7.63
2022-12-31T22:18:35.661Z,7.82
2022-12-31T22:21:13.745Z,7.55
2022-12-31T22:23:47.163Z,8.35
2022-12-31T22:26:18.333Z,7.93
2022-12-31T22:28:47.689Z,7.32
2022-12-31T22:31:20.340Z,8.55
2022-12-31T22:33:49.230Z,7.97
2022-12-31T22:36:20.408Z,8.07
2022-12-31T22:38:49.894Z,7.88
2022-12-31T22:41:21.899Z,8.00
2022-12-31T22:43:55.986Z,7.97
2022-12-31T22:46:30.685Z,8.00
2022-12-31T22:49:01.250Z,8.20
2022-12-31T22:51:57.630Z,7.95
2022-12-31T22:54:19.423Z,7.57
2022-12-31T22:56:47.781Z,8.45
2022-12-31T22:59:16.072Z,7.55
2022-12-31T23:01:45.894Z,7.47
2022-12-31T23:04:14.518Z,7.63
2022-12-31T23:06:47.294Z,8.13
2022-12-31T23:09:35.631Z,8.35
2022-12-31T23:12:06.106Z,7.70
2022-12-31T23:14:52.756Z,8.20
2022-12-31T23:17:42.534Z,11.10
2022-12-31T23:20:34.650Z,11.35
2022-12-31T23:23:12.764Z,12.65
2022-12-31T23:25:44.592Z,12.82
2022-12-31T23:28:16.647Z,12.10
2022-12-31T23:30:45.497Z,11.02
2022-12-31T23:33:18.501Z,11.55
2022-12-31T23:35:47.188Z,12.48
2022-12-31T23:38:18.144Z,13.07
2022-12-31T23:40:46.863Z,13.23
2022-12-31T23:43:22.264Z,13.63
2022-12-31T23:45:51.555Z,14.75
2022-12-31T23:48:21.284Z,15.18
2022-12-31T23:50:53.956Z,15.48
2022-12-31T23:53:23.463Z,16.92
2022-12-31T23:55:52.304Z,17.25
2022-12-31T23:58:21.340Z,17.55
